createdAt,value
2019-01-23T00:01:33.637Z,-10.10
2019-01-23T00:04:04.592Z,-10.20
2019-01-23T00:06:35.106Z,-10.20
2019-01-23T00:09:07.503Z,-10.30
2019-01-23T00:11:38.035Z,-10.30
2019-01-23T00:14:09.144Z,-10.30
2019-01-23T00:16:39.636Z,-10.30
2019-01-23T00:19:10.140Z,-10.40
2019-01-23T00:21:42.088Z,-10.30
2019-01-23T00:24:12.607Z,-10.30
2019-01-23T00:26:43.119Z,-10.30
2019-01-23T00:29:13.680Z,-10.40
2019-01-23T00:31:44.223Z,-10.40
2019-01-23T00:34:14.794Z,-10.40
2019-01-23T00:36:45.376Z,-10.40
2019-01-23T00:39:17.406Z,-10.50
2019-01-23T00:41:47.908Z,-10.50
2019-01-23T00:44:18.402Z,-10.50
2019-01-23T00:46:50.904Z,-10.50
2019-01-23T00:49:21.393Z,-10.50
2019-01-23T00:51:52.748Z,-10.40
2019-01-23T00:54:23.697Z,-10.50
2019-01-23T00:56:54.208Z,-10.50
2019-01-23T00:59:24.718Z,-10.50
2019-01-23T01:01:55.305Z,-10.50
2019-01-23T01:04:25.897Z,-10.50
2019-01-23T01:06:56.576Z,-10.60
2019-01-23T01:09:27.159Z,-10.60
2019-01-23T01:11:57.680Z,-10.60
2019-01-23T01:14:28.209Z,-10.70
2019-01-23T01:16:58.775Z,-10.60
2019-01-23T01:19:29.319Z,-10.70
2019-01-23T01:21:59.800Z,-10.70
2019-01-23T01:24:30.314Z,-10.70
2019-01-23T01:27:02.736Z,-10.70
2019-01-23T01:29:35.159Z,-10.70
2019-01-23T01:32:05.747Z,-10.70
2019-01-23T01:34:36.242Z,-10.80
2019-01-23T01:37:06.848Z,-10.80
2019-01-23T01:39:37.341Z,-10.80
2019-01-23T01:42:07.943Z,-10.90
2019-01-23T01:44:38.428Z,-10.90
2019-01-23T01:47:08.946Z,-10.90
2019-01-23T01:49:39.462Z,-11.00
2019-01-23T01:52:09.948Z,-11.00
2019-01-23T01:54:40.549Z,-11.00
2019-01-23T01:57:11.029Z,-10.90
2019-01-23T01:59:41.559Z,-10.90
2019-01-23T02:02:12.038Z,-11.00
2019-01-23T02:04:42.568Z,-11.00
2019-01-23T02:07:13.060Z,-11.00
2019-01-23T02:09:45.519Z,-11.00
2019-01-23T02:12:16.929Z,-11.10
2019-01-23T02:14:47.413Z,-11.10
2019-01-23T02:17:17.922Z,-11.10
2019-01-23T02:19:48.474Z,-11.10
2019-01-23T02:22:18.989Z,-11.30
2019-01-23T02:24:49.489Z,-11.30
2019-01-23T02:27:20.072Z,-11.30
2019-01-23T02:29:50.558Z,-11.20
2019-01-23T02:32:21.074Z,-11.10
2019-01-23T02:34:51.562Z,-11.10
2019-01-23T02:37:22.077Z,-11.10
2019-01-23T02:39:52.583Z,-11.20
2019-01-23T02:42:23.186Z,-11.20
2019-01-23T02:44:53.691Z,-11.20
2019-01-23T02:47:24.227Z,-11.20
2019-01-23T02:49:54.726Z,-11.20
2019-01-23T02:52:25.240Z,-11.30
2019-01-23T02:54:55.729Z,-11.30
2019-01-23T02:57:26.258Z,-11.30
2019-01-23T02:59:56.744Z,-11.30
2019-01-23T03:02:27.443Z,-11.40
2019-01-23T03:04:57.963Z,-11.40
2019-01-23T03:07:28.482Z,-11.40
2019-01-23T03:09:59.274Z,-11.50
2019-01-23T03:12:29.803Z,-11.50
2019-01-23T03:15:01.306Z,-11.50
2019-01-23T03:17:31.876Z,-11.50
2019-01-23T03:20:02.410Z,-11.50
2019-01-23T03:22:32.897Z,-11.50
2019-01-23T03:25:05.340Z,-11.60
2019-01-23T03:27:37.243Z,-11.50
2019-01-23T03:30:12.494Z,-11.50
2019-01-23T03:32:42.996Z,-11.50
2019-01-23T03:35:14.437Z,-11.40
2019-01-23T03:37:46.730Z,-11.40
2019-01-23T03:40:20.379Z,-11.40
2019-01-23T03:42:51.094Z,-11.40
2019-01-23T03:45:21.694Z,-11.40
2019-01-23T03:47:52.255Z,-11.40
2019-01-23T03:50:24.308Z,-11.50
2019-01-23T03:52:54.938Z,-11.60
2019-01-23T03:55:25.448Z,-11.60
2019-01-23T03:57:56.031Z,-11.60
2019-01-23T04:00:26.518Z,-11.60
2019-01-23T04:02:57.118Z,-11.70
2019-01-23T04:05:27.732Z,-11.70
2019-01-23T04:07:59.814Z,-11.70
2019-01-23T04:10:30.304Z,-11.70
2019-01-23T04:13:00.810Z,-11.60
2019-01-23T04:15:31.403Z,-11.60
2019-01-23T04:18:01.961Z,-11.60
2019-01-23T04:20:32.524Z,-11.60
2019-01-23T04:23:03.007Z,-11.70
2019-01-23T04:25:33.666Z,-11.70
2019-01-23T04:28:04.159Z,-11.70
2019-01-23T04:30:34.725Z,-11.80
2019-01-23T04:33:05.215Z,-11.80
2019-01-23T04:35:35.765Z,-11.70
2019-01-23T04:38:06.245Z,-11.70
2019-01-23T04:40:36.781Z,-11.70
2019-01-23T04:43:07.339Z,-11.70
2019-01-23T04:45:39.058Z,-11.70
2019-01-23T04:48:09.582Z,-11.70
2019-01-23T04:50:59.871Z,-11.70
2019-01-23T04:53:38.242Z,-11.70
2019-01-23T04:56:08.771Z,-11.70
2019-01-23T04:58:39.314Z,-11.70
2019-01-23T05:01:09.882Z,-11.70
2019-01-23T05:03:40.479Z,-11.80
2019-01-23T05:06:10.949Z,-11.90
2019-01-23T05:08:41.485Z,-11.80
2019-01-23T05:11:11.975Z,-11.80
2019-01-23T05:13:42.544Z,-11.70
2019-01-23T05:16:13.028Z,-11.70
2019-01-23T05:18:43.544Z,-11.80
2019-01-23T05:21:14.055Z,-11.70
2019-01-23T05:23:45.101Z,-11.80
2019-01-23T05:26:15.633Z,-11.80
2019-01-23T05:28:46.119Z,-11.80
2019-01-23T05:31:16.636Z,-11.80
2019-01-23T05:33:47.239Z,-11.80
2019-01-23T05:36:17.736Z,-11.80
2019-01-23T05:38:48.251Z,-11.90
2019-01-23T05:41:18.808Z,-11.90
2019-01-23T05:43:49.350Z,-11.90
2019-01-23T05:46:21.374Z,-11.90
2019-01-23T05:48:51.892Z,-11.90
2019-01-23T05:51:22.555Z,-11.90
2019-01-23T05:53:53.052Z,-12.00
2019-01-23T05:56:26.251Z,-11.90
2019-01-23T05:58:56.754Z,-11.90
2019-01-23T06:01:27.437Z,-12.00
2019-01-23T06:03:58.081Z,-11.90
2019-01-23T06:06:28.909Z,-11.90
2019-01-23T06:08:59.489Z,-11.80
2019-01-23T06:11:29.971Z,-11.90
2019-01-23T06:14:00.489Z,-11.90
2019-01-23T06:16:32.211Z,-11.90
2019-01-23T06:19:02.731Z,-11.90
2019-01-23T06:21:33.262Z,-11.90
2019-01-23T06:24:24.635Z,-11.90
2019-01-23T06:26:56.147Z,-11.80
2019-01-23T06:29:26.678Z,-11.80
2019-01-23T06:31:57.183Z,-11.90
2019-01-23T06:34:27.699Z,-11.90
2019-01-23T06:36:59.333Z,-11.90
2019-01-23T06:39:29.992Z,-11.90
2019-01-23T06:42:00.614Z,-12.00
2019-01-23T06:44:31.133Z,-12.00
2019-01-23T06:47:01.626Z,-12.00
2019-01-23T06:49:32.130Z,-11.90
2019-01-23T06:52:02.659Z,-11.90
2019-01-23T06:54:33.168Z,-11.80
2019-01-23T06:57:03.719Z,-11.80
2019-01-23T06:59:34.368Z,-11.80
2019-01-23T07:02:05.998Z,-11.70
2019-01-23T07:04:36.494Z,-11.70
2019-01-23T07:07:07.009Z,-11.70
2019-01-23T07:09:37.497Z,-11.60
2019-01-23T07:12:08.042Z,-11.50
2019-01-23T07:14:38.528Z,-11.50
2019-01-23T07:17:09.048Z,-11.40
2019-01-23T07:19:39.538Z,-11.30
2019-01-23T07:22:10.057Z,-11.20
2019-01-23T07:24:41.420Z,-11.10
2019-01-23T07:27:11.928Z,-11.10
2019-01-23T07:29:42.420Z,-11.00
2019-01-23T07:32:13.021Z,-11.00
2019-01-23T07:34:43.518Z,-11.00
2019-01-23T07:37:14.046Z,-10.90
2019-01-23T07:39:44.533Z,-10.80
2019-01-23T07:42:15.055Z,-10.70
2019-01-23T07:44:45.553Z,-10.70
2019-01-23T07:47:16.070Z,-10.60
2019-01-23T07:49:46.561Z,-10.40
2019-01-23T07:52:17.086Z,-10.30
2019-01-23T07:54:47.593Z,-10.30
2019-01-23T07:57:18.117Z,-10.10
2019-01-23T07:59:51.836Z,-10.00
2019-01-23T08:02:22.344Z,-9.90
2019-01-23T08:04:52.850Z,-9.80
2019-01-23T08:07:23.373Z,-9.70
2019-01-23T08:09:53.882Z,-9.60
2019-01-23T08:12:24.438Z,-9.40
2019-01-23T08:14:54.944Z,-9.30
2019-01-23T08:17:25.444Z,-9.20
2019-01-23T08:19:55.943Z,-9.10
2019-01-23T08:22:26.495Z,-9.00
2019-01-23T08:24:56.990Z,-8.90
2019-01-23T08:27:28.622Z,-8.80
2019-01-23T08:29:59.098Z,-8.70
2019-01-23T08:32:29.613Z,-8.50
2019-01-23T08:35:00.230Z,-8.40
2019-01-23T08:37:30.693Z,-8.20
2019-01-23T08:40:01.204Z,-8.10
2019-01-23T08:42:31.720Z,-8.10
2019-01-23T08:45:02.196Z,-7.90
2019-01-23T08:47:32.731Z,-7.70
2019-01-23T08:50:04.774Z,-6.30
2019-01-23T08:52:35.251Z,-7.40
2019-01-23T08:55:07.793Z,-7.30
2019-01-23T08:57:38.270Z,-7.20
2019-01-23T09:00:15.986Z,-7.10
2019-01-23T09:02:46.602Z,-7.10
2019-01-23T09:05:17.361Z,-7.10
2019-01-23T09:07:47.830Z,-7.10
2019-01-23T09:10:29.932Z,-7.10
2019-01-23T09:13:01.010Z,-7.10
2019-01-23T09:15:31.630Z,-7.10
2019-01-23T09:18:03.735Z,-7.10
2019-01-23T09:20:34.205Z,-7.20
2019-01-23T09:23:04.849Z,-7.30
2019-01-23T09:25:38.081Z,-7.30
2019-01-23T09:28:08.583Z,-7.40
2019-01-23T09:30:52.703Z,-7.40
2019-01-23T09:33:30.442Z,-7.30
2019-01-23T09:36:26.653Z,-7.30
2019-01-23T09:39:25.052Z,-7.10
2019-01-23T09:42:33.264Z,-6.80
2019-01-23T09:45:55.876Z,-6.40
2019-01-23T09:48:36.784Z,-6.10
2019-01-23T09:51:26.383Z,-5.90
2019-01-23T09:54:04.545Z,-5.70
2019-01-23T09:56:35.010Z,-5.60
2019-01-23T09:59:05.635Z,-5.50
2019-01-23T10:01:36.138Z,-5.40
2019-01-23T10:04:07.316Z,-5.30
2019-01-23T10:06:37.791Z,-5.10
2019-01-23T10:09:09.788Z,-5.00
2019-01-23T10:11:41.814Z,-4.80
2019-01-23T10:14:12.320Z,-4.70
2019-01-23T10:16:42.855Z,-4.70
2019-01-23T10:19:13.399Z,-4.70
2019-01-23T10:21:44.678Z,-4.50
2019-01-23T10:24:17.154Z,-4.50
2019-01-23T10:26:47.650Z,-4.40
2019-01-23T10:29:18.118Z,-4.30
2019-01-23T10:31:48.633Z,-4.10
2019-01-23T10:34:19.108Z,-4.10
2019-01-23T10:36:50.935Z,-4.10
2019-01-23T10:39:21.415Z,-4.00
2019-01-23T10:41:51.926Z,-3.90
2019-01-23T10:44:23.958Z,-3.80
2019-01-23T10:46:54.427Z,-3.80
2019-01-23T10:49:24.936Z,-3.80
2019-01-23T10:51:56.882Z,-3.80
2019-01-23T10:54:27.469Z,-3.80
2019-01-23T10:56:57.928Z,-3.80
2019-01-23T10:59:28.449Z,-3.70
2019-01-23T11:01:58.944Z,-3.70
2019-01-23T11:04:29.429Z,-3.70
2019-01-23T11:07:01.807Z,-3.70
2019-01-23T11:09:32.289Z,-3.70
2019-01-23T11:12:02.856Z,-3.60
2019-01-23T11:14:33.330Z,-3.60
2019-01-23T11:17:03.870Z,-3.50
2019-01-23T11:19:34.398Z,-3.50
2019-01-23T11:22:05.233Z,-3.50
2019-01-23T11:24:35.705Z,-3.50
2019-01-23T11:27:06.351Z,-3.50
2019-01-23T11:29:36.817Z,-3.50
2019-01-23T11:32:07.391Z,-3.50
2019-01-23T11:34:37.915Z,-3.50
2019-01-23T11:37:08.397Z,-3.50
2019-01-23T11:39:38.895Z,-3.60
2019-01-23T11:42:09.463Z,-3.60
2019-01-23T11:44:39.986Z,-3.60
2019-01-23T11:47:10.603Z,-3.60
2019-01-23T11:49:41.171Z,-3.70
2019-01-23T11:52:11.668Z,-3.70
2019-01-23T11:54:42.135Z,-3.80
2019-01-23T11:57:12.707Z,-3.80
2019-01-23T11:59:43.192Z,-3.90
2019-01-23T12:02:13.831Z,-3.90
2019-01-23T12:04:44.351Z,-3.90
2019-01-23T12:07:14.834Z,-4.00
2019-01-23T12:09:45.342Z,-3.90
2019-01-23T12:12:15.827Z,-3.90
2019-01-23T12:14:46.315Z,-3.70
2019-01-23T12:17:16.899Z,-3.70
2019-01-23T12:19:47.594Z,-3.60
2019-01-23T12:22:19.635Z,-3.50
2019-01-23T12:24:50.108Z,-3.50
2019-01-23T12:27:20.863Z,-3.50
2019-01-23T12:29:52.876Z,-3.40
2019-01-23T12:32:23.394Z,-3.40
2019-01-23T12:34:53.931Z,-3.30
2019-01-23T12:37:24.428Z,-3.30
2019-01-23T12:39:54.904Z,-3.30
2019-01-23T12:42:25.424Z,-3.30
2019-01-23T12:44:55.968Z,-3.30
2019-01-23T12:47:26.585Z,-3.30
2019-01-23T12:49:57.059Z,-3.30
2019-01-23T12:52:27.588Z,-3.30
2019-01-23T12:54:58.921Z,-3.40
2019-01-23T12:57:31.061Z,-3.40
2019-01-23T13:00:05.409Z,-3.50
2019-01-23T13:02:33.766Z,-3.50
2019-01-23T13:05:06.254Z,-3.60
2019-01-23T13:07:36.841Z,-3.60
2019-01-23T13:10:14.646Z,-3.70
2019-01-23T13:12:45.595Z,-3.70
2019-01-23T13:15:22.267Z,-3.80
2019-01-23T13:17:52.851Z,-3.80
2019-01-23T13:20:25.933Z,-3.80
2019-01-23T13:22:56.516Z,-3.90
2019-01-23T13:25:29.429Z,-3.90
2019-01-23T13:28:02.231Z,-3.90
2019-01-23T13:30:32.794Z,-4.00
2019-01-23T13:33:03.472Z,-4.00
2019-01-23T13:35:38.792Z,-4.10
2019-01-23T13:38:12.888Z,-4.20
2019-01-23T13:40:43.455Z,-4.20
2019-01-23T13:43:14.064Z,-4.20
2019-01-23T13:45:44.564Z,-4.20
2019-01-23T13:48:15.206Z,-4.20
2019-01-23T13:50:45.754Z,-4.20
2019-01-23T13:53:16.251Z,-4.10
2019-01-23T13:55:46.760Z,-4.10
2019-01-23T13:58:17.236Z,-4.10
2019-01-23T14:00:47.819Z,-4.10
2019-01-23T14:03:18.290Z,-4.10
2019-01-23T14:05:48.791Z,-4.00
2019-01-23T14:08:19.342Z,-4.00
2019-01-23T14:10:49.858Z,-3.90
2019-01-23T14:13:20.318Z,-3.90
2019-01-23T14:15:50.902Z,-3.80
2019-01-23T14:18:21.450Z,-3.80
2019-01-23T14:20:51.986Z,-3.80
2019-01-23T14:23:22.464Z,-3.80
2019-01-23T14:25:52.971Z,-3.90
2019-01-23T14:28:23.441Z,-3.90
2019-01-23T14:30:54.395Z,-3.90
2019-01-23T14:33:24.895Z,-3.90
2019-01-23T14:35:55.393Z,-3.90
2019-01-23T14:38:25.902Z,-4.00
2019-01-23T14:40:56.400Z,-4.00
2019-01-23T14:43:26.962Z,-4.00
2019-01-23T14:45:57.446Z,-4.00
2019-01-23T14:48:27.944Z,-4.00
2019-01-23T14:50:58.585Z,-4.00
2019-01-23T14:53:29.055Z,-4.00
2019-01-23T14:55:59.549Z,-4.00
2019-01-23T14:58:30.687Z,-4.00
2019-01-23T15:01:01.203Z,-4.00
2019-01-23T15:03:31.691Z,-4.00
2019-01-23T15:06:02.254Z,-4.00
2019-01-23T15:08:32.739Z,-4.00
2019-01-23T15:11:03.231Z,-4.00
2019-01-23T15:13:33.766Z,-4.00
2019-01-23T15:16:04.406Z,-4.00
2019-01-23T15:18:34.877Z,-4.00
2019-01-23T15:21:09.503Z,-4.00
2019-01-23T15:23:39.958Z,-4.00
2019-01-23T15:26:10.477Z,-4.00
2019-01-23T15:28:41.016Z,-4.10
2019-01-23T15:31:11.526Z,-4.10
2019-01-23T15:33:41.997Z,-4.10
2019-01-23T15:36:14.116Z,-4.10
2019-01-23T15:38:44.642Z,-4.10
2019-01-23T15:41:15.119Z,-4.10
2019-01-23T15:43:45.588Z,-4.10
2019-01-23T15:46:16.223Z,-4.10
2019-01-23T15:48:46.691Z,-4.10
2019-01-23T15:51:18.298Z,-4.20
2019-01-23T15:53:48.772Z,-4.10
2019-01-23T15:56:19.363Z,-4.10
2019-01-23T15:58:49.922Z,-4.10
2019-01-23T16:01:20.439Z,-4.10
2019-01-23T16:03:50.934Z,-4.10
2019-01-23T16:06:21.419Z,-4.20
2019-01-23T16:08:51.922Z,-4.20
2019-01-23T16:11:22.431Z,-4.20
2019-01-23T16:13:52.923Z,-4.20
2019-01-23T16:16:24.980Z,-4.30
2019-01-23T16:18:55.529Z,-4.30
2019-01-23T16:21:26.056Z,-4.30
2019-01-23T16:23:57.532Z,-4.30
2019-01-23T16:26:28.078Z,-4.40
2019-01-23T16:28:58.603Z,-4.40
2019-01-23T16:31:29.077Z,-4.40
2019-01-23T16:33:59.571Z,-4.40
2019-01-23T16:36:30.039Z,-4.40
2019-01-23T16:39:00.538Z,-4.40
2019-01-23T16:41:32.097Z,-4.40
2019-01-23T16:44:02.610Z,-4.40
2019-01-23T16:46:33.675Z,-4.40
2019-01-23T16:49:04.246Z,-4.40
2019-01-23T16:51:34.812Z,-4.40
2019-01-23T16:54:06.865Z,-4.40
2019-01-23T16:56:37.411Z,-4.40
2019-01-23T16:59:08.093Z,-4.40
2019-01-23T17:01:38.639Z,-4.40
2019-01-23T17:04:10.672Z,-4.40
2019-01-23T17:06:41.208Z,-4.30
2019-01-23T17:09:11.877Z,-4.30
2019-01-23T17:11:42.389Z,-4.30
2019-01-23T17:14:12.864Z,-4.20
2019-01-23T17:16:44.533Z,-4.20
2019-01-23T17:19:15.034Z,-4.20
2019-01-23T17:21:45.537Z,-4.20
2019-01-23T17:24:16.027Z,-4.20
2019-01-23T17:26:46.617Z,-4.20
2019-01-23T17:29:17.093Z,-4.20
2019-01-23T17:31:49.237Z,-4.20
2019-01-23T17:34:19.740Z,-4.20
2019-01-23T17:36:50.218Z,-4.10
2019-01-23T17:39:20.727Z,-4.10
2019-01-23T17:41:51.238Z,-4.00
2019-01-23T17:44:21.792Z,-4.00
2019-01-23T17:46:53.413Z,-4.00
2019-01-23T17:49:23.915Z,-4.00
2019-01-23T17:51:56.357Z,-4.00
2019-01-23T17:54:28.373Z,-3.90
2019-01-23T17:56:59.018Z,-3.90
2019-01-23T17:59:31.218Z,-3.90
2019-01-23T18:02:02.163Z,-3.90
2019-01-23T18:04:33.205Z,-3.90
2019-01-23T18:07:03.840Z,-3.90
2019-01-23T18:09:34.310Z,-3.90
2019-01-23T18:12:07.028Z,-3.90
2019-01-23T18:14:37.531Z,-3.80
2019-01-23T18:17:08.086Z,-3.80
2019-01-23T18:19:38.613Z,-3.80
2019-01-23T18:22:09.112Z,-3.80
2019-01-23T18:24:39.718Z,-3.80
2019-01-23T18:27:10.256Z,-3.80
2019-01-23T18:29:40.921Z,-3.70
2019-01-23T18:32:11.500Z,-3.70
2019-01-23T18:34:55.562Z,-3.70
2019-01-23T18:37:30.777Z,-3.70
2019-01-23T18:40:17.133Z,-3.70
2019-01-23T18:42:54.830Z,-3.70
2019-01-23T18:45:30.264Z,-3.70
2019-01-23T18:48:16.830Z,-3.70
2019-01-23T18:51:06.183Z,-3.70
2019-01-23T18:53:36.691Z,-3.70
2019-01-23T18:56:07.239Z,-3.60
2019-01-23T18:58:37.758Z,-3.60
2019-01-23T19:01:08.333Z,-3.60
2019-01-23T19:03:38.820Z,-3.60
2019-01-23T19:06:09.391Z,-3.60
2019-01-23T19:08:39.871Z,-3.60
2019-01-23T19:11:11.479Z,-3.60
2019-01-23T19:13:41.997Z,-3.60
2019-01-23T19:16:14.672Z,-3.60
2019-01-23T19:18:45.923Z,-3.70
2019-01-23T19:21:16.450Z,-3.70
2019-01-23T19:23:47.808Z,-3.60
2019-01-23T19:26:18.326Z,-3.60
2019-01-23T19:28:48.805Z,-3.60
2019-01-23T19:31:19.337Z,-3.60
2019-01-23T19:33:49.884Z,-3.60
2019-01-23T19:36:20.381Z,-3.60
2019-01-23T19:38:50.900Z,-3.60
2019-01-23T19:41:21.368Z,-3.60
2019-01-23T19:43:51.875Z,-3.60
2019-01-23T19:46:22.352Z,-3.60
2019-01-23T19:48:52.857Z,-3.60
2019-01-23T19:51:23.372Z,-3.60
2019-01-23T19:53:53.860Z,-3.60
2019-01-23T19:56:24.393Z,-3.60
2019-01-23T19:58:54.940Z,-3.60
2019-01-23T20:01:25.612Z,-3.60
2019-01-23T20:03:56.172Z,-3.60
2019-01-23T20:06:26.714Z,-3.60
2019-01-23T20:08:57.195Z,-3.50
2019-01-23T20:11:27.766Z,-3.60
2019-01-23T20:13:58.235Z,-3.50
2019-01-23T20:16:28.741Z,-3.50
2019-01-23T20:19:00.745Z,-3.50
2019-01-23T20:21:31.318Z,-3.50
2019-01-23T20:24:01.778Z,-3.50
2019-01-23T20:26:32.298Z,-3.50
2019-01-23T20:29:05.634Z,-3.50
2019-01-23T20:31:36.149Z,-3.50
2019-01-23T20:34:07.293Z,-3.50
2019-01-23T20:36:37.769Z,-3.50
2019-01-23T20:39:10.728Z,-3.50
2019-01-23T20:41:41.275Z,-3.40
2019-01-23T20:44:11.789Z,-3.40
2019-01-23T20:46:42.334Z,-3.30
2019-01-23T20:49:12.839Z,-3.30
2019-01-23T20:51:43.313Z,-3.30
2019-01-23T20:54:13.812Z,-3.30
2019-01-23T20:56:44.356Z,-3.40
2019-01-23T20:59:14.834Z,-3.30
2019-01-23T21:01:45.346Z,-3.30
2019-01-23T21:04:15.821Z,-3.30
2019-01-23T21:06:46.437Z,-3.30
2019-01-23T21:09:17.810Z,-3.30
2019-01-23T21:11:48.332Z,-3.30
2019-01-23T21:14:18.805Z,-3.40
2019-01-23T21:16:49.328Z,-3.30
2019-01-23T21:19:19.803Z,-3.20
2019-01-23T21:21:50.281Z,-3.20
2019-01-23T21:24:20.812Z,-3.10
2019-01-23T21:26:51.301Z,-3.00
2019-01-23T21:29:21.787Z,-3.00
2019-01-23T21:31:52.291Z,-3.00
2019-01-23T21:34:22.766Z,-2.90
2019-01-23T21:36:53.261Z,-2.90
2019-01-23T21:39:23.731Z,-2.80
2019-01-23T21:41:54.251Z,-2.90
2019-01-23T21:44:24.718Z,-2.90
2019-01-23T21:46:55.234Z,-2.80
2019-01-23T21:49:25.711Z,-2.80
2019-01-23T21:51:56.225Z,-2.80
2019-01-23T21:54:26.775Z,-2.80
2019-01-23T21:56:57.342Z,-2.80
2019-01-23T21:59:27.811Z,-2.80
2019-01-23T22:01:58.387Z,-2.80
2019-01-23T22:04:28.878Z,-2.80
2019-01-23T22:06:59.360Z,-2.80
2019-01-23T22:09:29.867Z,-2.80
2019-01-23T22:12:00.345Z,-2.80
2019-01-23T22:14:30.851Z,-2.80
2019-01-23T22:17:01.324Z,-2.80
2019-01-23T22:19:32.064Z,-2.80
2019-01-23T22:22:02.533Z,-2.70
2019-01-23T22:24:33.029Z,-2.70
2019-01-23T22:27:03.500Z,-2.70
2019-01-23T22:29:34.017Z,-2.80
2019-01-23T22:32:04.853Z,-2.80
2019-01-23T22:34:35.362Z,-2.70
2019-01-23T22:37:05.902Z,-2.70
2019-01-23T22:39:36.393Z,-2.80
2019-01-23T22:42:06.930Z,-2.80
2019-01-23T22:44:37.433Z,-2.90
2019-01-23T22:47:07.894Z,-2.90
2019-01-23T22:49:38.396Z,-3.00
2019-01-23T22:52:08.858Z,-3.00
2019-01-23T22:54:39.396Z,-3.00
2019-01-23T22:57:09.859Z,-3.10
2019-01-23T22:59:40.361Z,-3.10
2019-01-23T23:02:10.837Z,-3.20
2019-01-23T23:04:41.350Z,-3.20
2019-01-23T23:07:11.829Z,-3.30
2019-01-23T23:09:42.339Z,-3.40
2019-01-23T23:12:12.803Z,-3.40
2019-01-23T23:14:43.376Z,-3.50
2019-01-23T23:17:13.845Z,-3.50
2019-01-23T23:19:44.388Z,-3.60
2019-01-23T23:22:14.867Z,-3.60
2019-01-23T23:24:45.370Z,-3.70
2019-01-23T23:27:15.845Z,-3.80
2019-01-23T23:29:46.369Z,-3.90
2019-01-23T23:32:16.833Z,-3.90
2019-01-23T23:34:47.350Z,-4.00
2019-01-23T23:37:17.820Z,-4.10
2019-01-23T23:39:48.319Z,-4.10
2019-01-23T23:42:18.864Z,-4.20
2019-01-23T23:44:49.440Z,-4.30
2019-01-23T23:47:19.935Z,-4.30
2019-01-23T23:49:50.435Z,-4.30
2019-01-23T23:52:20.917Z,-4.40
2019-01-23T23:54:51.500Z,-4.40
2019-01-23T23:57:22.077Z,-4.50
2019-01-23T23:59:52.545Z,-4.50
